createdAt,value
2022-09-01T00:01:50.960Z,100689.72
2022-09-01T00:04:21.250Z,100685.34
2022-09-01T00:06:49.639Z,100685.66
2022-09-01T00:09:19.901Z,100682.28
2022-09-01T00:11:52.567Z,100683.44
2022-09-01T00:14:30.029Z,100688.00
2022-09-01T00:17:00.020Z,100684.59
2022-09-01T00:19:29.604Z,100675.69
2022-09-01T00:21:58.104Z,100686.59
2022-09-01T00:24:26.694Z,100681.53
2022-09-01T00:26:56.353Z,100683.50
2022-09-01T00:29:25.699Z,100684.81
2022-09-01T00:31:54.585Z,100683.59
2022-09-01T00:34:23.101Z,100690.81
2022-09-01T00:36:51.119Z,100684.75
2022-09-01T00:39:18.938Z,100678.69
2022-09-01T00:41:47.912Z,100677.00
2022-09-01T00:44:23.284Z,100679.81
2022-09-01T00:46:55.946Z,100677.63
2022-09-01T00:49:31.681Z,100681.47
2022-09-01T00:52:09.337Z,100679.94
2022-09-01T00:54:41.052Z,100679.06
2022-09-01T00:57:10.911Z,100679.41
2022-09-01T00:59:46.924Z,100683.41
2022-09-01T01:02:15.735Z,100685.22
2022-09-01T01:04:46.262Z,100686.38
2022-09-01T01:07:14.725Z,100684.69
2022-09-01T01:09:45.886Z,100687.53
2022-09-01T01:12:18.659Z,100684.00
2022-09-01T01:14:50.149Z,100687.53
2022-09-01T01:17:18.968Z,100681.47
2022-09-01T01:20:06.698Z,100688.00
2022-09-01T01:23:00.000Z,100677.41
2022-09-01T01:25:31.666Z,100677.84
2022-09-01T01:28:13.195Z,100676.31
2022-09-01T01:30:44.200Z,100680.00
2022-09-01T01:33:12.364Z,100675.75
2022-09-01T01:35:41.976Z,100682.16
2022-09-01T01:38:09.858Z,100683.31
2022-09-01T01:40:39.753Z,100677.25
2022-09-01T01:43:07.787Z,100674.16
2022-09-01T01:45:36.322Z,100673.59
2022-09-01T01:48:06.087Z,100680.13
2022-09-01T01:50:35.561Z,100674.06
2022-09-01T01:53:10.817Z,100677.75
2022-09-01T01:55:41.751Z,100672.69
2022-09-01T01:58:12.035Z,100679.75
2022-09-01T02:00:44.476Z,100680.06
2022-09-01T02:03:17.283Z,100679.03
2022-09-01T02:05:46.869Z,100679.75
2022-09-01T02:08:20.886Z,100667.59
2022-09-01T02:10:52.637Z,100670.63
2022-09-01T02:13:31.020Z,100675.13
2022-09-01T02:16:02.013Z,100666.22
2022-09-01T02:18:34.326Z,100669.06
2022-09-01T02:21:02.163Z,100669.22
2022-09-01T02:23:30.064Z,100666.38
2022-09-01T02:26:18.017Z,100661.88
2022-09-01T02:28:55.567Z,100669.75
2022-09-01T02:31:24.334Z,100666.22
2022-09-01T02:33:54.386Z,100667.38
2022-09-01T02:36:25.212Z,100660.28
2022-09-01T02:38:56.444Z,100665.66
2022-09-01T02:41:29.408Z,100662.28
2022-09-01T02:43:57.181Z,100662.84
2022-09-01T02:46:25.263Z,100661.88
2022-09-01T02:48:53.474Z,100669.91
2022-09-01T02:51:24.100Z,100670.63
2022-09-01T02:53:52.505Z,100662.69
2022-09-01T02:56:25.004Z,100659.88
2022-09-01T02:58:55.351Z,100668.06
2022-09-01T03:01:25.452Z,100671.22
2022-09-01T03:03:55.683Z,100666.97
2022-09-01T03:06:25.006Z,100667.16
2022-09-01T03:08:54.273Z,100672.25
2022-09-01T03:11:24.325Z,100669.56
2022-09-01T03:13:52.396Z,100665.78
2022-09-01T03:16:23.591Z,100665.91
2022-09-01T03:18:52.420Z,100666.06
2022-09-01T03:21:20.678Z,100667.22
2022-09-01T03:23:49.694Z,100667.50
2022-09-01T03:26:21.064Z,100669.47
2022-09-01T03:28:49.947Z,100667.94
2022-09-01T03:31:18.982Z,100671.63
2022-09-01T03:33:48.660Z,100671.78
2022-09-01T03:36:20.159Z,100671.78
2022-09-01T03:38:49.317Z,100673.91
2022-09-01T03:41:18.785Z,100674.91
2022-09-01T03:43:48.295Z,100671.50
2022-09-01T03:46:21.599Z,100673.34
2022-09-01T03:48:54.986Z,100674.19
2022-09-01T03:51:24.594Z,100675.22
2022-09-01T03:53:54.910Z,100675.22
2022-09-01T03:56:26.191Z,100670.69
2022-09-01T03:58:56.239Z,100671.50
2022-09-01T04:01:25.174Z,100671.50
2022-09-01T04:03:54.619Z,100673.50
2022-09-01T04:06:24.413Z,100680.03
2022-09-01T04:08:56.869Z,100675.66
2022-09-01T04:11:25.252Z,100679.19
2022-09-01T04:13:53.292Z,100677.47
2022-09-01T04:16:41.852Z,100673.25
2022-09-01T04:19:20.321Z,100676.09
2022-09-01T04:21:50.436Z,100679.06
2022-09-01T04:24:19.941Z,100672.84
2022-09-01T04:26:49.721Z,100679.91
2022-09-01T04:29:24.220Z,100686.94
2022-09-01T04:31:52.276Z,100677.38
2022-09-01T04:34:22.546Z,100679.50
2022-09-01T04:36:56.822Z,100673.00
2022-09-01T04:39:25.247Z,100675.69
2022-09-01T04:41:54.132Z,100684.44
2022-09-01T04:44:22.249Z,100687.13
2022-09-01T04:46:50.883Z,100692.50
2022-09-01T04:49:26.363Z,100690.66
2022-09-01T04:51:55.546Z,100679.91
2022-09-01T04:54:24.196Z,100681.59
2022-09-01T04:56:54.003Z,100683.56
2022-09-01T04:59:24.781Z,100685.72
2022-09-01T05:01:55.676Z,100691.78
2022-09-01T05:04:28.225Z,100688.56
2022-09-01T05:06:59.678Z,100691.94
2022-09-01T05:09:28.905Z,100690.94
2022-09-01T05:11:57.705Z,100690.09
2022-09-01T05:14:26.102Z,100677.50
2022-09-01T05:16:58.879Z,100676.38
2022-09-01T05:19:30.944Z,100676.53
2022-09-01T05:22:00.047Z,100685.97
2022-09-01T05:24:30.465Z,100675.09
2022-09-01T05:26:59.024Z,100680.34
2022-09-01T05:29:27.804Z,100677.19
2022-09-01T05:31:56.900Z,100679.88
2022-09-01T05:34:27.457Z,100687.63
2022-09-01T05:36:59.419Z,100681.13
2022-09-01T05:39:28.639Z,100680.69
2022-09-01T05:41:57.241Z,100690.56
2022-09-01T05:44:25.113Z,100684.91
2022-09-01T05:46:53.618Z,100684.63
2022-09-01T05:49:21.547Z,100687.44
2022-09-01T05:51:52.207Z,100686.28
2022-09-01T05:54:25.502Z,100692.06
2022-09-01T05:56:53.676Z,100687.25
2022-09-01T05:59:24.796Z,100695.44
2022-09-01T06:01:54.192Z,100693.91
2022-09-01T06:04:22.825Z,100690.63
2022-09-01T06:07:08.478Z,100696.38
2022-09-01T06:09:40.438Z,100692.38
2022-09-01T06:12:09.308Z,100692.47
2022-09-01T06:14:37.071Z,100697.25
2022-09-01T06:17:04.884Z,100694.13
2022-09-01T06:19:37.211Z,100695.50
2022-09-01T06:22:05.327Z,100700.28
2022-09-01T06:24:33.179Z,100694.84
2022-09-01T06:27:02.861Z,100698.91
2022-09-01T06:29:32.150Z,100698.97
2022-09-01T06:32:02.301Z,100704.56
2022-09-01T06:34:30.290Z,100695.75
2022-09-01T06:36:58.072Z,100699.81
2022-09-01T06:39:26.570Z,100699.50
2022-09-01T06:41:54.788Z,100694.19
2022-09-01T06:44:24.985Z,100693.72
2022-09-01T06:46:54.049Z,100692.28
2022-09-01T06:49:32.548Z,100698.75
2022-09-01T06:52:00.904Z,100694.41
2022-09-01T06:54:29.879Z,100699.84
2022-09-01T06:56:59.497Z,100707.28
2022-09-01T06:59:34.719Z,100705.34
2022-09-01T07:04:51.946Z,100714.00
2022-09-01T07:10:23.531Z,100720.31
2022-09-01T07:13:07.852Z,100718.19
2022-09-01T07:18:29.394Z,100723.91
2022-09-01T07:23:49.171Z,100725.91
2022-09-01T07:26:33.897Z,100722.72
2022-09-01T07:29:04.336Z,100724.78
2022-09-01T07:32:48.090Z,100733.56
2022-09-01T07:34:46.137Z,100720.88
2022-09-01T07:37:17.325Z,100727.78
2022-09-01T07:42:57.818Z,100708.78
2022-09-01T07:45:31.200Z,100728.16
2022-09-01T07:48:03.528Z,100726.56
2022-09-01T07:51:09.014Z,100730.06
2022-09-01T07:53:22.572Z,100733.47
2022-09-01T07:55:51.995Z,100730.16
2022-09-01T07:58:22.002Z,100733.41
2022-09-01T08:00:50.286Z,100731.97
2022-09-01T08:03:21.933Z,100728.00
2022-09-01T08:05:53.788Z,100732.78
2022-09-01T08:08:26.242Z,100728.75
2022-09-01T08:11:04.420Z,100731.28
2022-09-01T08:13:37.283Z,100733.34
2022-09-01T08:16:08.424Z,100729.88
2022-09-01T08:18:53.336Z,100734.16
2022-09-01T08:21:23.529Z,100727.88
2022-09-01T08:23:52.475Z,100736.13
2022-09-01T08:26:22.542Z,100736.50
2022-09-01T08:28:57.946Z,100734.50
2022-09-01T08:31:30.767Z,100735.16
2022-09-01T08:34:00.445Z,100735.03
2022-09-01T08:36:28.267Z,100737.00
2022-09-01T08:38:56.181Z,100733.00
2022-09-01T08:41:36.418Z,100730.88
2022-09-01T08:44:14.905Z,100733.00
2022-09-01T08:46:44.885Z,100733.00
2022-09-01T08:49:27.996Z,100737.59
2022-09-01T08:52:03.288Z,100726.66
2022-09-01T08:54:38.404Z,100731.88
2022-09-01T08:57:10.036Z,100721.94
2022-09-01T08:59:38.958Z,100728.59
2022-09-01T09:02:28.112Z,100723.41
2022-09-01T09:05:20.882Z,100718.59
2022-09-01T09:08:07.252Z,100726.59
2022-09-01T09:10:43.684Z,100728.56
2022-09-01T09:13:16.806Z,100730.22
2022-09-01T09:15:51.614Z,100733.72
2022-09-01T09:18:39.784Z,100736.72
2022-09-01T09:21:17.423Z,100734.56
2022-09-01T09:23:49.299Z,100734.28
2022-09-01T09:26:22.234Z,100727.94
2022-09-01T09:28:50.947Z,100727.66
2022-09-01T09:31:30.156Z,100729.66
2022-09-01T09:33:59.230Z,100727.91
2022-09-01T09:36:36.094Z,100722.59
2022-09-01T09:39:07.995Z,100716.81
2022-09-01T09:41:36.314Z,100725.41
2022-09-01T09:44:20.496Z,100727.34
2022-09-01T09:46:50.576Z,100723.56
2022-09-01T09:49:34.763Z,100719.88
2022-09-01T09:52:17.424Z,100717.81
2022-09-01T09:55:04.622Z,100708.69
2022-09-01T09:57:33.324Z,100701.50
2022-09-01T10:00:08.430Z,100709.06
2022-09-01T10:02:38.835Z,100704.00
2022-09-01T10:05:24.722Z,100710.44
2022-09-01T10:07:55.125Z,100704.75
2022-09-01T10:10:32.435Z,100697.41
2022-09-01T10:13:01.989Z,100690.19
2022-09-01T10:15:33.761Z,100691.72
2022-09-01T10:18:30.223Z,100688.22
2022-09-01T10:21:00.462Z,100691.81
2022-09-01T10:23:32.378Z,100686.41
2022-09-01T10:26:06.386Z,100679.09
2022-09-01T10:28:50.637Z,100677.41
2022-09-01T10:31:20.264Z,100680.25
2022-09-01T10:33:48.874Z,100684.13
2022-09-01T10:36:17.917Z,100678.22
2022-09-01T10:38:53.760Z,100666.53
2022-09-01T10:41:59.604Z,100673.13
2022-09-01T10:44:34.103Z,100678.47
2022-09-01T10:47:06.434Z,100674.47
2022-09-01T10:50:07.413Z,100668.03
2022-09-01T10:53:06.272Z,100666.22
2022-09-01T10:56:04.886Z,100659.19
2022-09-01T11:05:18.351Z,100651.31
2022-09-01T11:08:09.119Z,100655.09
2022-09-01T11:10:52.502Z,100656.44
2022-09-01T11:13:40.339Z,100650.25
2022-09-01T11:19:32.996Z,100645.34
2022-09-01T11:22:22.342Z,100650.50
2022-09-01T11:25:00.367Z,100644.53
2022-09-01T11:28:13.732Z,100638.47
2022-09-01T11:30:52.856Z,100637.72
2022-09-01T11:33:43.119Z,100642.69
2022-09-01T11:36:22.117Z,100636.72
2022-09-01T11:38:55.230Z,100634.19
2022-09-01T11:41:31.976Z,100638.78
2022-09-01T11:44:00.972Z,100628.72
2022-09-01T11:46:34.607Z,100627.81
2022-09-01T11:49:08.101Z,100614.97
2022-09-01T11:51:46.827Z,100616.06
2022-09-01T11:54:16.710Z,100612.78
2022-09-01T11:56:44.540Z,100617.91
2022-09-01T11:59:12.489Z,100611.63
2022-09-01T12:01:41.790Z,100612.84
2022-09-01T12:04:22.410Z,100608.13
2022-09-01T12:06:56.594Z,100615.53
2022-09-01T12:09:33.904Z,100605.94
2022-09-01T12:12:01.720Z,100601.91
2022-09-01T12:14:39.029Z,100601.28
2022-09-01T12:17:21.631Z,100603.31
2022-09-01T12:19:49.285Z,100597.97
2022-09-01T12:22:20.093Z,100587.34
2022-09-01T12:24:49.965Z,100588.53
2022-09-01T12:27:17.781Z,100594.81
2022-09-01T12:29:46.083Z,100588.16
2022-09-01T12:32:15.850Z,100587.03
2022-09-01T12:34:46.894Z,100582.91
2022-09-01T12:37:24.294Z,100579.56
2022-09-01T12:39:54.520Z,100587.28
2022-09-01T12:42:29.889Z,100580.81
2022-09-01T12:45:13.115Z,100581.38
2022-09-01T12:47:50.410Z,100578.53
2022-09-01T12:50:43.604Z,100571.34
2022-09-01T12:53:22.343Z,100573.19
2022-09-01T12:56:17.469Z,100573.66
2022-09-01T12:58:52.204Z,100573.69
2022-09-01T13:01:29.567Z,100575.00
2022-09-01T13:04:14.738Z,100574.38
2022-09-01T13:06:44.186Z,100569.38
2022-09-01T13:09:12.049Z,100573.88
2022-09-01T13:14:31.709Z,100569.19
2022-09-01T13:16:59.542Z,100565.94
2022-09-01T13:19:30.407Z,100559.38
2022-09-01T13:21:59.816Z,100552.69
2022-09-01T13:24:30.474Z,100554.78
2022-09-01T13:29:49.354Z,100540.03
2022-09-01T13:32:20.994Z,100537.75
2022-09-01T13:34:51.755Z,100537.53
2022-09-01T13:37:21.926Z,100536.25
2022-09-01T13:39:50.258Z,100537.91
2022-09-01T13:42:19.323Z,100545.44
2022-09-01T13:44:48.579Z,100533.84
2022-09-01T13:47:29.258Z,100536.00
2022-09-01T13:50:07.226Z,100535.63
2022-09-01T13:52:38.561Z,100531.72
2022-09-01T13:55:08.455Z,100526.66
2022-09-01T13:57:36.985Z,100530.03
2022-09-01T14:00:08.255Z,100523.16
2022-09-01T14:02:37.450Z,100523.00
2022-09-01T14:05:06.003Z,100520.31
2022-09-01T14:07:34.030Z,100529.16
2022-09-01T14:10:03.279Z,100527.53
2022-09-01T14:12:32.092Z,100520.19
2022-09-01T14:15:17.498Z,100519.06
2022-09-01T14:17:47.665Z,100517.41
2022-09-01T14:20:18.264Z,100514.69
2022-09-01T14:22:46.947Z,100511.09
2022-09-01T14:25:18.090Z,100516.19
2022-09-01T14:27:47.507Z,100507.81
2022-09-01T14:30:18.356Z,100509.94
2022-09-01T14:32:46.568Z,100511.19
2022-09-01T14:35:15.763Z,100506.84
2022-09-01T14:37:44.889Z,100505.75
2022-09-01T14:40:16.912Z,100501.53
2022-09-01T14:42:49.444Z,100496.09
2022-09-01T14:45:19.735Z,100494.97
2022-09-01T14:47:48.781Z,100485.75
2022-09-01T14:50:21.722Z,100492.44
2022-09-01T14:52:53.233Z,100483.53
2022-09-01T14:55:21.417Z,100486.88
2022-09-01T14:57:50.647Z,100481.00
2022-09-01T15:00:19.595Z,100476.91
2022-09-01T15:02:47.744Z,100482.22
2022-09-01T15:05:16.357Z,100480.09
2022-09-01T15:07:44.374Z,100476.03
2022-09-01T15:10:23.438Z,100477.03
2022-09-01T15:12:55.911Z,100472.13
2022-09-01T15:15:24.164Z,100468.84
2022-09-01T15:17:52.099Z,100472.91
2022-09-01T15:20:37.561Z,100473.00
2022-09-01T15:23:05.883Z,100476.84
2022-09-01T15:25:33.726Z,100464.09
2022-09-01T15:28:03.361Z,100467.09
2022-09-01T15:30:31.490Z,100471.13
2022-09-01T15:32:59.585Z,100463.81
2022-09-01T15:35:30.313Z,100462.41
2022-09-01T15:37:58.298Z,100460.38
2022-09-01T15:40:27.210Z,100461.88
2022-09-01T15:42:55.826Z,100463.38
2022-09-01T15:45:25.987Z,100458.31
2022-09-01T15:47:54.243Z,100451.63
2022-09-01T15:50:27.352Z,100455.63
2022-09-01T15:52:58.606Z,100457.94
2022-09-01T15:55:28.429Z,100458.34
2022-09-01T15:57:56.666Z,100446.00
2022-09-01T16:00:28.234Z,100442.66
2022-09-01T16:03:01.593Z,100448.16
2022-09-01T16:05:30.513Z,100441.22
2022-09-01T16:07:58.934Z,100450.06
2022-09-01T16:10:27.531Z,100449.66
2022-09-01T16:12:55.350Z,100441.09
2022-09-01T16:15:25.272Z,100438.78
2022-09-01T16:18:07.397Z,100438.81
2022-09-01T16:20:38.400Z,100445.34
2022-09-01T16:23:17.113Z,100445.97
2022-09-01T16:25:45.865Z,100439.28
2022-09-01T16:28:23.581Z,100439.69
2022-09-01T16:30:53.502Z,100442.84
2022-09-01T16:33:22.762Z,100441.16
2022-09-01T16:36:06.424Z,100439.50
2022-09-01T16:38:42.228Z,100435.94
2022-09-01T16:41:21.228Z,100434.28
2022-09-01T16:43:57.513Z,100428.00
2022-09-01T16:46:30.563Z,100426.94
2022-09-01T16:49:18.135Z,100428.81
2022-09-01T16:51:56.902Z,100425.06
2022-09-01T16:54:34.524Z,100423.16
2022-09-01T16:57:09.100Z,100428.00
2022-09-01T16:59:51.969Z,100424.66
2022-09-01T17:02:35.825Z,100427.56
2022-09-01T17:05:16.816Z,100431.38
2022-09-01T17:07:52.983Z,100421.72
2022-09-01T17:10:33.858Z,100424.06
2022-09-01T17:13:17.259Z,100423.63
2022-09-01T17:15:51.765Z,100424.25
2022-09-01T17:18:33.626Z,100429.47
2022-09-01T17:21:10.956Z,100428.66
2022-09-01T17:23:47.323Z,100422.59
2022-09-01T17:26:20.604Z,100422.78
2022-09-01T17:28:55.353Z,100425.09
2022-09-01T17:31:47.483Z,100421.97
2022-09-01T17:34:29.303Z,100421.53
2022-09-01T17:37:09.641Z,100420.28
2022-09-01T17:39:50.809Z,100422.19
2022-09-01T17:42:30.235Z,100421.16
2022-09-01T17:45:06.017Z,100430.94
2022-09-01T17:47:44.687Z,100417.97
2022-09-01T17:50:19.906Z,100428.22
2022-09-01T17:53:03.467Z,100437.03
2022-09-01T17:55:46.344Z,100436.59
2022-09-01T17:58:28.585Z,100436.16
2022-09-01T18:01:04.646Z,100433.84
2022-09-01T18:03:47.068Z,100435.09
2022-09-01T18:06:28.138Z,100435.94
2022-09-01T18:08:59.249Z,100434.69
2022-09-01T18:11:35.995Z,100444.28
2022-09-01T18:14:09.769Z,100447.81
2022-09-01T18:16:49.316Z,100441.13
2022-09-01T18:19:20.624Z,100447.38
2022-09-01T18:21:54.234Z,100457.19
2022-09-01T18:24:30.072Z,100456.75
2022-09-01T18:26:57.940Z,100460.09
2022-09-01T18:29:29.651Z,100459.19
2022-09-01T18:32:12.094Z,100467.53
2022-09-01T18:34:55.924Z,100467.31
2022-09-01T18:37:32.813Z,100469.78
2022-09-01T18:40:17.273Z,100470.41
2022-09-01T18:42:54.267Z,100474.56
2022-09-01T18:45:32.546Z,100477.25
2022-09-01T18:48:07.706Z,100485.34
2022-09-01T18:50:45.655Z,100486.97
2022-09-01T18:53:25.279Z,100489.00
2022-09-01T18:56:01.828Z,100490.19
2022-09-01T18:58:50.017Z,100488.69
2022-09-01T19:01:29.822Z,100492.38
2022-09-01T19:04:10.092Z,100486.66
2022-09-01T19:06:47.576Z,100487.84
2022-09-01T19:09:22.425Z,100490.50
2022-09-01T19:12:03.797Z,100489.22
2022-09-01T19:14:40.199Z,100490.63
2022-09-01T19:17:24.611Z,100490.41
2022-09-01T19:19:58.003Z,100489.13
2022-09-01T19:22:38.261Z,100490.31
2022-09-01T19:25:26.933Z,100494.44
2022-09-01T19:27:59.247Z,100492.72
2022-09-01T19:30:27.071Z,100496.19
2022-09-01T19:32:56.595Z,100502.38
2022-09-01T19:35:24.967Z,100506.31
2022-09-01T19:37:52.770Z,100501.69
2022-09-01T19:40:26.556Z,100495.16
2022-09-01T19:43:01.232Z,100502.44
2022-09-01T19:45:37.549Z,100492.34
2022-09-01T19:48:15.093Z,100490.19
2022-09-01T19:50:48.524Z,100497.31
2022-09-01T19:53:36.801Z,100497.66
2022-09-01T19:56:08.797Z,100490.78
2022-09-01T19:58:47.526Z,100490.41
2022-09-01T20:01:19.137Z,100501.44
2022-09-01T20:03:53.600Z,100498.91
2022-09-01T20:06:33.520Z,100495.72
2022-09-01T20:09:08.424Z,100496.13
2022-09-01T20:11:46.554Z,100490.88
2022-09-01T20:14:47.160Z,100494.44
2022-09-01T20:17:21.678Z,100494.25
2022-09-01T20:19:56.695Z,100496.13
2022-09-01T20:22:31.381Z,100496.50
2022-09-01T20:25:10.705Z,100492.94
2022-09-01T20:27:49.961Z,100500.44
2022-09-01T20:30:21.721Z,100490.34
2022-09-01T20:33:01.377Z,100496.34
2022-09-01T20:35:41.811Z,100497.94
2022-09-01T20:38:31.790Z,100495.59
2022-09-01T20:41:05.844Z,100498.69
2022-09-01T20:43:39.804Z,100496.34
2022-09-01T20:46:09.043Z,100496.53
2022-09-01T20:48:40.831Z,100494.22
2022-09-01T20:51:15.083Z,100497.75
2022-09-01T20:53:57.482Z,100492.72
2022-09-01T20:56:36.359Z,100499.16
2022-09-01T20:59:10.608Z,100493.75
2022-09-01T21:01:47.400Z,100501.22
2022-09-01T21:04:30.846Z,100496.63
2022-09-01T21:07:05.878Z,100500.38
2022-09-01T21:09:40.722Z,100493.28
2022-09-01T21:12:10.611Z,100495.34
2022-09-01T21:14:51.331Z,100494.41
2022-09-01T21:17:30.531Z,100501.59
2022-09-01T21:20:07.868Z,100498.75
2022-09-01T21:22:35.979Z,100502.41
2022-09-01T21:25:04.429Z,100502.66
2022-09-01T21:27:37.365Z,100498.16
2022-09-01T21:30:09.344Z,100499.47
2022-09-01T21:32:39.354Z,100502.91
2022-09-01T21:35:10.594Z,100491.31
2022-09-01T21:37:38.455Z,100493.25
2022-09-01T21:40:08.008Z,100496.03
2022-09-01T21:42:39.559Z,100497.25
2022-09-01T21:45:11.112Z,100493.44
2022-09-01T21:47:41.010Z,100488.34
2022-09-01T21:50:09.847Z,100492.63
2022-09-01T21:52:37.766Z,100493.16
2022-09-01T21:55:06.580Z,100496.09
2022-09-01T21:57:35.452Z,100492.63
2022-09-01T22:00:04.934Z,100491.97
2022-09-01T22:02:33.041Z,100486.16
2022-09-01T22:05:05.642Z,100483.84
2022-09-01T22:07:33.323Z,100493.66
2022-09-01T22:10:01.062Z,100486.09
2022-09-01T22:12:28.893Z,100479.88
2022-09-01T22:14:56.662Z,100485.75
2022-09-01T22:17:24.411Z,100491.69
2022-09-01T22:19:52.957Z,100493.44
2022-09-01T22:22:22.123Z,100478.75
2022-09-01T22:24:49.950Z,100481.09
2022-09-01T22:27:17.843Z,100478.59
2022-09-01T22:29:45.911Z,100479.66
2022-09-01T22:32:13.797Z,100484.88
2022-09-01T22:34:41.579Z,100475.81
2022-09-01T22:37:11.675Z,100486.09
2022-09-01T22:39:40.867Z,100486.59
2022-09-01T22:42:08.784Z,100490.47
2022-09-01T22:44:36.588Z,100486.13
2022-09-01T22:47:04.563Z,100484.78
2022-09-01T22:49:32.878Z,100484.44
2022-09-01T22:52:00.668Z,100488.47
2022-09-01T22:54:28.567Z,100486.47
2022-09-01T22:56:59.425Z,100488.66
2022-09-01T22:59:27.457Z,100487.94
2022-09-01T23:01:55.698Z,100484.56
2022-09-01T23:04:24.649Z,100490.13
2022-09-01T23:06:53.953Z,100495.66
2022-09-01T23:09:22.427Z,100494.31
2022-09-01T23:11:50.714Z,100489.97
2022-09-01T23:14:19.881Z,100490.09
2022-09-01T23:16:51.374Z,100489.44
2022-09-01T23:19:19.751Z,100486.38
2022-09-01T23:21:48.137Z,100483.38
2022-09-01T23:24:19.057Z,100481.00
2022-09-01T23:26:48.439Z,100486.88
2022-09-01T23:29:17.269Z,100486.53
2022-09-01T23:31:46.662Z,100484.84
2022-09-01T23:34:16.475Z,100488.00
2022-09-01T23:36:44.439Z,100485.81
2022-09-01T23:39:12.431Z,100481.44
2022-09-01T23:41:40.391Z,100490.19
2022-09-01T23:44:10.845Z,100483.28
2022-09-01T23:46:41.920Z,100484.44
2022-09-01T23:49:12.651Z,100482.94
2022-09-01T23:51:41.176Z,100483.25
2022-09-01T23:54:09.384Z,100476.34
2022-09-01T23:56:39.221Z,100475.69
2022-09-01T23:59:08.303Z,100473.97
